Time;durP1;ratioP1;P1;durP2;ratioP2;P2;SDS_P1;SDS_P2;PMS_P1;PMS_P2;Temp;Humidity;BMP_temperature;BMP_pressure;BME280_temperature;BME280_humidity;BME280_pressure;Samples;Min_cycle;Max_cycle;Signal;HPM_P1;HPM_P2
2023/04/07 00:02:26;;;;;;;4.45;2.45;;;;;;;5.85;69.52;100395.59;4995070;28;20702;-55
2023/04/07 00:04:52;;;;;;;4.57;2.05;;;;;;;5.81;69.53;100398.91;4992430;28;20085;-56
2023/04/07 00:07:19;;;;;;;5.93;2.88;;;;;;;5.82;69.87;100403.25;4999332;28;20046;-56
2023/04/07 00:09:46;;;;;;;4.50;1.85;;;;;;;5.82;69.72;100404.94;4999929;28;20053;-57
2023/04/07 00:12:12;;;;;;;5.93;2.38;;;;;;;5.81;69.99;100414.34;4994678;28;20497;-55
2023/04/07 00:14:39;;;;;;;8.40;3.67;;;;;;;5.81;69.48;100409.19;4994185;28;20476;-54
2023/04/07 00:17:05;;;;;;;4.15;2.45;;;;;;;5.79;69.58;100416.03;4998246;28;20050;-54
2023/04/07 00:19:32;;;;;;;5.82;2.45;;;;;;;5.76;71.18;100410.81;4994984;28;20450;-56
2023/04/07 00:21:59;;;;;;;8.00;2.83;;;;;;;5.73;69.67;100413.28;4996735;28;20110;-55
2023/04/07 00:24:26;;;;;;;6.20;2.78;;;;;;;5.73;69.78;100416.75;5000924;28;20073;-54
2023/04/07 00:27:00;;;;;;;4.47;1.98;;;;;;;5.73;69.58;100410.72;5000110;28;20074;-55
2023/04/07 00:29:27;;;;;;;7.10;2.65;;;;;;;5.72;69.83;100414.13;5000068;28;20088;-55
2023/04/07 00:31:54;;;;;;;4.40;2.05;;;;;;;5.70;70.81;100420.94;5002877;28;20049;-54
2023/04/07 00:34:21;;;;;;;7.03;2.60;;;;;;;5.69;70.25;100430.34;5001484;28;20050;-55
2023/04/07 00:36:51;;;;;;;5.13;2.55;;;;;;;5.69;69.73;100419.19;5001803;28;20133;-57
2023/04/07 00:39:18;;;;;;;3.42;1.98;;;;;;;5.65;70.17;100419.13;5004971;28;20497;-57
2023/04/07 00:41:45;;;;;;;5.47;2.17;;;;;;;5.64;69.84;100425.09;5008439;28;20050;-54
2023/04/07 00:44:13;;;;;;;5.95;2.38;;;;;;;5.62;70.95;100424.22;5008962;28;20081;-53
2023/04/07 00:46:40;;;;;;;5.45;1.98;;;;;;;5.61;70.93;100425.03;5003878;28;20133;-54
2023/04/07 00:49:07;;;;;;;5.13;2.05;;;;;;;5.60;70.92;100430.13;5005592;28;20053;-56
2023/04/07 00:51:36;;;;;;;3.05;1.88;;;;;;;5.57;71.03;100424.94;5001734;28;20046;-55
2023/04/07 00:54:03;;;;;;;6.63;2.20;;;;;;;5.56;70.60;100429.19;5003064;28;20073;-55
2023/04/07 00:56:31;;;;;;;10.05;2.72;;;;;;;5.53;71.39;100426.53;5006862;28;20148;-57
2023/04/07 00:58:57;;;;;;;7.00;2.55;;;;;;;5.51;70.89;100435.94;5002910;28;20137;-54
2023/04/07 01:01:29;;;;;;;5.50;2.75;;;;;;;5.51;71.56;100433.38;5003948;28;20054;-56
2023/04/07 01:04:03;;;;;;;4.50;2.55;;;;;;;5.50;70.61;100436.75;5004241;28;20046;-55
2023/04/07 01:06:35;;;;;;;4.95;2.60;;;;;;;5.47;71.94;100434.13;5007962;28;20045;-56
2023/04/07 01:09:17;;;;;;;5.30;2.05;;;;;;;5.43;72.14;100427.19;5001893;28;20078;-54
2023/04/07 01:11:58;;;;;;;4.88;2.25;;;;;;;5.43;72.32;100422.03;5010450;28;20128;-53
2023/04/07 01:14:28;;;;;;;8.15;2.72;;;;;;;5.40;71.35;100431.38;5007150;28;20057;-52
2023/04/07 01:16:58;;;;;;;4.60;2.97;;;;;;;5.35;71.83;100433.00;5004171;28;20576;-53
2023/04/07 01:19:47;;;;;;;5.38;1.90;;;;;;;5.37;72.11;100433.88;5001244;28;20204;-53
2023/04/07 01:22:20;;;;;;;5.47;2.42;;;;;;;5.40;71.44;100439.09;4997925;28;20054;-54
2023/04/07 01:25:27;;;;;;;4.90;2.60;;;;;;;5.32;72.39;100440.59;5001694;28;20046;-54
2023/04/07 01:30:40;;;;;;;3.20;0.82;;;;;;;5.33;72.64;100437.19;5057664;27;20901;-55
2023/04/07 01:33:09;;;;;;;5.85;1.23;;;;;;;5.26;73.28;100437.88;5022305;28;20045;-54
2023/04/07 01:35:38;;;;;;;1.50;0.60;;;;;;;5.23;73.24;100441.25;5036812;28;20042;-51
2023/04/07 01:38:06;;;;;;;3.25;1.08;;;;;;;5.21;72.68;100442.03;5040284;28;20069;-50
2023/04/07 01:40:35;;;;;;;3.15;0.90;;;;;;;5.19;72.81;100443.69;5037845;28;20132;-53
2023/04/07 01:43:02;;;;;;;5.35;1.08;;;;;;;5.14;73.50;100444.44;5036429;28;20567;-54
2023/04/07 01:45:30;;;;;;;10.43;1.55;;;;;;;5.12;72.85;100440.97;5034545;28;20053;-49
2023/04/07 01:47:58;;;;;;;6.40;1.48;;;;;;;5.10;73.80;100440.06;5034751;28;20076;-53
2023/04/07 01:50:26;;;;;;;9.25;1.38;;;;;;;5.10;73.26;100437.47;5036454;28;20569;-53
2023/04/07 01:52:53;;;;;;;8.00;1.35;;;;;;;5.08;73.39;100441.72;5036855;28;20045;-53
2023/04/07 01:55:20;;;;;;;7.45;1.13;;;;;;;5.04;74.09;100439.03;5037448;28;20049;-54
2023/04/07 01:57:46;;;;;;;9.18;1.88;;;;;;;5.07;72.79;100445.09;5030491;28;20560;-53
2023/04/07 02:00:13;;;;;;;3.90;1.23;;;;;;;5.02;74.25;100441.56;5037087;28;20136;-53
2023/04/07 02:02:43;;;;;;;3.03;1.10;;;;;;;4.99;74.06;100446.59;5035619;28;20045;-56
2023/04/07 02:05:13;;;;;;;4.93;1.35;;;;;;;4.98;74.36;100445.75;5017800;28;20436;-52
2023/04/07 02:07:50;;;;;;;10.50;2.08;;;;;;;4.99;74.27;100452.63;5014478;28;20100;-54
2023/04/07 02:10:21;;;;;;;8.35;1.85;;;;;;;5.01;73.85;100450.09;5015908;28;20041;-53
2023/04/07 02:12:48;;;;;;;6.03;1.00;;;;;;;4.98;74.36;100455.13;5026699;28;20087;-52
2023/04/07 02:15:15;;;;;;;3.40;0.90;;;;;;;4.97;73.54;100459.41;5033837;28;20467;-50
2023/04/07 02:17:52;;;;;;;2.88;0.77;;;;;;;4.92;74.50;100445.56;5039508;28;20037;-50
2023/04/07 02:20:21;;;;;;;4.60;1.05;;;;;;;4.89;74.09;100456.63;5069906;28;20525;-50
2023/04/07 02:22:47;;;;;;;6.10;1.15;;;;;;;4.88;74.70;100449.78;5038292;28;20053;-54
2023/04/07 02:27:59;;;;;;;1.33;0.68;;;;;;;4.81;75.20;100458.13;5037509;27;20409;-49
2023/04/07 02:30:26;;;;;;;9.43;1.73;;;;;;;4.84;74.51;100462.47;5017022;28;20524;-52
2023/04/07 02:32:53;;;;;;;3.08;1.23;;;;;;;4.84;74.49;100463.34;5019356;28;20050;-55
2023/04/07 02:35:20;;;;;;;8.68;1.58;;;;;;;4.82;74.90;100469.25;5019624;28;20065;-54
2023/04/07 02:37:47;;;;;;;1.65;0.68;;;;;;;4.80;75.09;100466.63;5017803;28;20050;-52
2023/04/07 02:40:14;;;;;;;7.50;1.42;;;;;;;4.83;74.68;100465.88;5015310;28;20081;-56
2023/04/07 02:42:41;;;;;;;5.28;1.65;;;;;;;4.79;75.44;100472.59;5021747;28;20103;-51
2023/04/07 02:45:09;;;;;;;2.33;0.88;;;;;;;4.79;75.25;100470.03;5021204;28;20062;-54
2023/04/07 02:47:37;;;;;;;6.20;1.50;;;;;;;4.82;74.68;100472.69;5016765;28;20100;-56
2023/04/07 02:50:04;;;;;;;4.68;1.23;;;;;;;4.80;74.35;100474.34;5012770;28;20180;-54
2023/04/07 02:52:31;;;;;;;7.03;1.58;;;;;;;4.82;74.86;100470.13;5011879;28;20506;-53
2023/04/07 02:54:58;;;;;;;3.90;2.08;;;;;;;4.81;74.46;100473.53;5013074;28;20084;-53
2023/04/07 02:57:24;;;;;;;4.50;1.50;;;;;;;4.79;74.36;100470.03;5015276;28;20093;-53
2023/04/07 02:59:51;;;;;;;4.88;1.90;;;;;;;4.80;74.51;100466.63;5017824;28;20673;-52
2023/04/07 03:02:17;;;;;;;5.18;1.60;;;;;;;4.80;74.30;100456.38;5012054;28;20406;-51
2023/04/07 03:04:44;;;;;;;10.63;2.20;;;;;;;4.80;74.76;100453.78;5009742;28;20071;-55
2023/04/07 03:07:11;;;;;;;11.43;2.00;;;;;;;4.79;74.07;100449.50;5017055;28;20644;-50
2023/04/07 03:09:37;;;;;;;5.88;1.63;;;;;;;4.78;74.25;100458.03;5016076;28;20050;-50
2023/04/07 03:12:04;;;;;;;9.20;1.65;;;;;;;4.78;73.81;100455.47;5013751;28;20045;-49
2023/04/07 03:14:31;;;;;;;6.45;1.50;;;;;;;4.78;74.21;100459.72;5019565;28;20453;-50
2023/04/07 03:16:57;;;;;;;4.45;1.13;;;;;;;4.75;73.88;100463.06;5021975;28;20120;-53
2023/04/07 03:19:24;;;;;;;4.32;1.30;;;;;;;4.74;73.75;100463.91;5018228;28;20053;-53
2023/04/07 03:21:50;;;;;;;8.02;2.00;;;;;;;4.71;74.00;100461.25;5017655;28;20653;-52
2023/04/07 03:24:17;;;;;;;12.50;2.00;;;;;;;4.70;73.76;100469.78;5013738;28;20045;-54
2023/04/07 03:26:44;;;;;;;3.75;1.70;;;;;;;4.67;73.34;100469.69;5018049;28;20084;-54
2023/04/07 03:29:10;;;;;;;7.20;1.85;;;;;;;4.64;73.84;100462.78;5017406;28;20125;-52
2023/04/07 03:31:37;;;;;;;3.30;1.10;;;;;;;4.62;73.65;100469.56;5008405;28;20077;-53
2023/04/07 03:34:04;;;;;;;5.40;2.20;;;;;;;4.62;73.13;100467.00;5017715;28;20041;-54
2023/04/07 03:36:30;;;;;;;8.52;1.80;;;;;;;4.60;73.92;100469.50;5013314;28;20045;-50
2023/04/07 03:38:57;;;;;;;8.23;1.80;;;;;;;4.58;73.46;100473.75;5001431;28;20077;-54
2023/04/07 03:41:24;;;;;;;10.00;2.03;;;;;;;4.57;73.48;100473.69;5005668;28;20462;-53
2023/04/07 03:43:50;;;;;;;5.15;1.30;;;;;;;4.53;73.63;100467.63;5005460;28;20046;-48
2023/04/07 03:46:20;;;;;;;5.28;1.80;;;;;;;4.55;73.21;100471.09;5005262;28;20050;-50
2023/04/07 03:48:46;;;;;;;4.03;1.90;;;;;;;4.52;73.50;100476.13;5005938;28;20498;-49
2023/04/07 03:51:14;;;;;;;6.97;1.60;;;;;;;4.53;73.68;100467.63;5002804;28;20101;-51
2023/04/07 03:53:40;;;;;;;7.32;1.77;;;;;;;4.49;73.22;100478.59;5000410;28;20082;-53
2023/04/07 03:56:07;;;;;;;4.30;1.42;;;;;;;4.48;73.65;100480.31;4997581;28;20133;-50
2023/04/07 03:58:34;;;;;;;6.30;1.23;;;;;;;4.46;73.43;100475.97;5000532;28;20046;-52
2023/04/07 04:01:00;;;;;;;6.82;1.70;;;;;;;4.44;73.41;100483.59;4997413;28;20145;-50
2023/04/07 04:03:27;;;;;;;8.75;1.88;;;;;;;4.42;73.33;100479.25;4993505;28;20743;-52
2023/04/07 04:05:54;;;;;;;3.67;1.38;;;;;;;4.41;73.21;100488.66;5003850;28;20057;-53
2023/04/07 04:08:20;;;;;;;8.90;1.58;;;;;;;4.38;73.17;100480.84;5002303;28;20127;-49
2023/04/07 04:10:47;;;;;;;7.75;1.95;;;;;;;4.36;73.06;100480.81;5001763;28;20564;-52
2023/04/07 04:13:13;;;;;;;6.90;1.55;;;;;;;4.32;73.08;100484.09;5002337;28;20701;-54
2023/04/07 04:15:40;;;;;;;9.95;2.03;;;;;;;4.29;73.05;100484.00;4994015;28;20391;-48
2023/04/07 04:18:07;;;;;;;3.47;1.42;;;;;;;4.27;73.11;100489.91;5001784;28;20103;-47
2023/04/07 04:20:34;;;;;;;4.40;1.77;;;;;;;4.24;73.37;100485.56;5004253;28;20050;-49
2023/04/07 04:23:01;;;;;;;8.57;2.50;;;;;;;4.22;73.10;100489.81;4998734;28;20077;-49
2023/04/07 04:25:27;;;;;;;4.10;2.60;;;;;;;4.19;73.07;100497.38;5001607;28;20045;-52
2023/04/07 04:27:54;;;;;;;4.78;1.35;;;;;;;4.15;73.46;100491.28;4999712;28;20121;-49
2023/04/07 04:30:21;;;;;;;4.88;1.38;;;;;;;4.17;73.00;100493.91;5000622;28;20433;-53
2023/04/07 04:32:48;;;;;;;6.75;1.55;;;;;;;4.15;72.97;100491.28;5003361;28;20062;-53
2023/04/07 04:35:15;;;;;;;7.55;2.55;;;;;;;4.12;73.85;100491.19;5000236;28;20050;-48
2023/04/07 04:37:41;;;;;;;5.03;1.80;;;;;;;4.10;73.07;100486.03;5001885;28;20046;-46
2023/04/07 04:40:09;;;;;;;5.07;1.65;;;;;;;4.08;73.07;100490.22;4999293;28;20453;-50
2023/04/07 04:42:35;;;;;;;6.30;2.03;;;;;;;4.08;72.96;100504.72;5001268;28;20085;-51
2023/04/07 04:45:02;;;;;;;4.57;1.58;;;;;;;4.05;73.34;100513.19;5002005;28;20080;-53
2023/04/07 04:47:29;;;;;;;7.30;1.55;;;;;;;4.04;73.24;100516.59;4998231;28;20069;-54
2023/04/07 04:49:56;;;;;;;7.15;1.60;;;;;;;4.04;73.20;100514.03;5002423;28;20046;-50
2023/04/07 04:52:22;;;;;;;4.07;1.58;;;;;;;4.03;73.20;100525.13;4998096;28;20046;-52
2023/04/07 04:54:49;;;;;;;2.85;1.42;;;;;;;4.02;73.45;100525.91;5003744;28;20132;-51
2023/04/07 04:57:16;;;;;;;5.63;2.10;;;;;;;4.01;73.73;100529.31;5002564;28;20626;-53
2023/04/07 04:59:42;;;;;;;7.65;2.20;;;;;;;3.99;73.93;100521.56;5002772;28;20069;-48
2023/04/07 05:02:09;;;;;;;9.30;2.47;;;;;;;3.99;73.36;100531.81;4979340;28;20054;-50
2023/04/07 05:04:35;;;;;;;13.48;2.30;;;;;;;4.01;73.15;100534.44;4995681;28;20058;-52
2023/04/07 05:07:03;;;;;;;7.80;2.42;;;;;;;4.00;73.89;100542.94;4998891;28;20045;-52
2023/04/07 05:09:30;;;;;;;12.50;3.17;;;;;;;3.98;73.72;100545.47;4998884;28;20677;-48
2023/04/07 05:11:56;;;;;;;9.88;2.75;;;;;;;3.99;73.55;100538.66;5001718;28;20546;-48
2023/04/07 05:14:23;;;;;;;8.85;2.55;;;;;;;3.98;73.75;100539.44;5002889;28;20551;-53
2023/04/07 05:16:50;;;;;;;13.95;2.55;;;;;;;3.97;73.94;100543.72;4999724;28;20046;-51
2023/04/07 05:19:16;;;;;;;7.97;2.90;;;;;;;3.97;73.93;100542.84;4999522;28;20136;-51
2023/04/07 05:21:43;;;;;;;6.82;2.63;;;;;;;3.97;73.79;100547.97;4999682;28;20284;-52
2023/04/07 05:24:09;;;;;;;6.75;2.10;;;;;;;3.94;73.39;100553.88;5000945;28;20042;-52
2023/04/07 05:26:36;;;;;;;9.75;2.03;;;;;;;3.95;73.65;100560.72;4995875;28;20422;-54
2023/04/07 05:29:03;;;;;;;12.48;2.65;;;;;;;3.96;73.90;100561.63;4996638;28;20509;-55
2023/04/07 05:31:29;;;;;;;15.60;3.38;;;;;;;3.97;73.76;100558.22;4998710;28;20613;-53
2023/04/07 05:33:56;;;;;;;5.35;1.70;;;;;;;3.97;73.78;100558.22;4997575;28;20104;-54
2023/04/07 05:36:22;;;;;;;4.63;1.92;;;;;;;3.96;73.57;100567.59;4998410;28;20426;-50
2023/04/07 05:38:49;;;;;;;10.18;2.13;;;;;;;3.96;73.98;100564.19;4996778;28;20057;-50
2023/04/07 05:41:15;;;;;;;10.05;2.17;;;;;;;3.98;73.62;100570.22;4996775;28;20554;-51
2023/04/07 05:43:42;;;;;;;5.97;2.35;;;;;;;3.98;74.50;100575.34;4997249;28;20066;-51
2023/04/07 05:46:09;;;;;;;2.67;1.30;;;;;;;3.98;73.91;100562.53;5000510;28;20053;-54
2023/04/07 05:48:35;;;;;;;10.05;2.20;;;;;;;3.99;73.78;100577.97;5002254;28;20046;-55
2023/04/07 05:51:02;;;;;;;7.18;2.70;;;;;;;4.01;73.89;100580.56;4995482;28;20081;-52
2023/04/07 05:53:29;;;;;;;10.95;2.78;;;;;;;4.02;74.39;100577.19;5000790;28;20046;-50
2023/04/07 05:55:55;;;;;;;9.02;1.98;;;;;;;4.04;74.46;100579.78;4993775;28;20081;-47
2023/04/07 05:58:22;;;;;;;4.70;1.50;;;;;;;4.03;74.90;100575.50;4998388;28;20746;-50
2023/04/07 06:00:49;;;;;;;3.80;1.55;;;;;;;4.04;74.84;100574.66;5001441;28;20123;-48
2023/04/07 06:03:16;;;;;;;3.55;1.73;;;;;;;4.04;74.91;100580.69;5005234;28;20742;-50
2023/04/07 06:05:45;;;;;;;12.68;3.78;;;;;;;4.03;74.95;100584.06;4996764;28;20058;-50
2023/04/07 06:08:12;;;;;;;4.50;1.80;;;;;;;4.02;75.45;100592.56;4995976;28;20053;-53
2023/04/07 06:10:40;;;;;;;3.50;1.90;;;;;;;4.04;75.85;100588.38;5000715;28;20051;-53
2023/04/07 06:13:07;;;;;;;5.85;2.03;;;;;;;4.07;74.78;100601.28;5003056;28;20050;-54
2023/04/07 06:15:33;;;;;;;3.03;1.83;;;;;;;4.10;75.52;100596.28;4999221;28;20082;-52
2023/04/07 06:18:00;;;;;;;4.35;1.60;;;;;;;4.14;75.25;100596.34;4998132;28;20050;-53
2023/04/07 06:20:27;;;;;;;9.95;2.45;;;;;;;4.15;75.18;100590.41;5001758;28;20096;-53
2023/04/07 06:22:54;;;;;;;6.60;2.35;;;;;;;4.19;74.91;100605.09;4998106;28;20042;-49
2023/04/07 06:25:20;;;;;;;9.45;1.73;;;;;;;4.22;75.08;100605.19;4994536;28;20208;-53
2023/04/07 06:27:47;;;;;;;6.35;2.55;;;;;;;4.26;75.26;100612.16;4991376;28;20057;-49
2023/04/07 06:30:14;;;;;;;7.80;1.70;;;;;;;4.29;75.10;100607.09;4995833;28;20108;-51
2023/04/07 06:32:41;;;;;;;11.05;2.03;;;;;;;4.33;75.08;100608.94;4999193;28;20077;-50
2023/04/07 06:35:08;;;;;;;8.88;1.30;;;;;;;4.36;75.10;100619.31;4993895;28;20123;-51
2023/04/07 06:37:34;;;;;;;8.27;2.97;;;;;;;4.40;75.34;100614.28;4999613;28;20466;-50
2023/04/07 06:40:01;;;;;;;6.85;1.98;;;;;;;4.46;75.32;100619.63;5000494;28;20054;-51
2023/04/07 06:42:27;;;;;;;4.50;1.92;;;;;;;4.49;74.77;100620.56;4998641;28;20130;-51
2023/04/07 06:44:57;;;;;;;4.63;2.22;;;;;;;4.55;75.40;100627.59;4999438;28;20056;-49
2023/04/07 06:47:24;;;;;;;6.38;1.73;;;;;;;4.58;75.45;100619.09;4994534;28;20038;-50
2023/04/07 06:49:50;;;;;;;3.38;1.38;;;;;;;4.61;75.86;100630.34;4998731;28;20061;-53
2023/04/07 06:52:17;;;;;;;6.40;1.52;;;;;;;4.67;75.14;100633.91;5000644;28;20137;-51
2023/04/07 06:54:43;;;;;;;7.18;2.13;;;;;;;4.73;75.42;100632.41;5001743;28;20139;-49
2023/04/07 06:57:11;;;;;;;4.65;1.98;;;;;;;4.78;75.55;100637.69;4997206;28;20081;-48
2023/04/07 06:59:38;;;;;;;9.18;2.47;;;;;;;4.84;74.99;100637.88;4998939;28;20222;-51
2023/04/07 07:02:06;;;;;;;10.18;2.53;;;;;;;4.92;74.78;100640.66;4997200;28;20575;-49
2023/04/07 07:04:33;;;;;;;4.15;1.65;;;;;;;5.28;75.28;100640.00;4999442;28;20108;-52
2023/04/07 07:07:01;;;;;;;7.03;2.00;;;;;;;6.21;74.42;100642.47;4995969;28;20050;-50
2023/04/07 07:09:27;;;;;;;6.50;1.75;;;;;;;7.22;72.83;100649.00;4998536;28;20050;-55
2023/04/07 07:11:54;;;;;;;5.65;1.90;;;;;;;8.07;71.08;100647.19;4997810;28;20141;-56
2023/04/07 07:14:21;;;;;;;6.93;1.90;;;;;;;8.85;69.97;100654.41;5005799;28;20041;-54
2023/04/07 07:16:48;;;;;;;7.03;2.80;;;;;;;9.48;68.76;100650.91;5000803;28;20058;-56
2023/04/07 07:19:14;;;;;;;8.77;2.08;;;;;;;10.01;66.92;100651.47;5006247;28;20461;-53
2023/04/07 07:21:41;;;;;;;10.13;1.73;;;;;;;10.50;66.12;100655.34;4997927;28;20073;-53
2023/04/07 07:24:07;;;;;;;10.05;1.70;;;;;;;11.07;65.21;100656.53;5001838;28;20077;-56
2023/04/07 07:26:34;;;;;;;6.53;2.10;;;;;;;11.61;63.74;100662.78;5000226;28;20144;-55
2023/04/07 07:29:01;;;;;;;4.50;1.55;;;;;;;12.11;63.77;100662.91;5004522;28;20127;-55
2023/04/07 07:31:28;;;;;;;5.03;2.08;;;;;;;12.78;63.08;100663.75;5003706;28;20066;-55
2023/04/07 07:33:54;;;;;;;5.00;1.92;;;;;;;13.34;61.39;100673.13;5005833;28;20414;-52
2023/04/07 07:36:21;;;;;;;4.90;1.85;;;;;;;13.79;59.63;100667.72;5005786;28;20056;-54
2023/04/07 07:38:50;;;;;;;9.07;2.28;;;;;;;14.21;59.50;100671.75;4999351;28;20065;-55
2023/04/07 07:41:16;;;;;;;9.10;1.83;;;;;;;14.63;59.25;100674.88;5000361;28;20045;-55
2023/04/07 07:43:43;;;;;;;4.95;1.63;;;;;;;15.15;57.88;100675.25;5005054;28;20658;-57
2023/04/07 07:46:09;;;;;;;5.22;2.10;;;;;;;15.55;56.52;100683.44;5001546;28;20051;-52
2023/04/07 07:48:36;;;;;;;6.07;1.90;;;;;;;15.88;55.38;100669.94;5003586;28;20413;-51
2023/04/07 07:51:03;;;;;;;7.40;1.63;;;;;;;16.02;54.39;100675.88;4998603;28;20814;-56
2023/04/07 07:53:30;;;;;;;3.47;1.55;;;;;;;16.22;54.14;100676.41;5001767;28;20084;-56
2023/04/07 07:55:56;;;;;;;3.25;1.50;;;;;;;16.53;53.47;100678.50;5011547;28;20041;-52
2023/04/07 07:58:23;;;;;;;3.13;1.15;;;;;;;16.89;52.62;100681.34;5023294;28;20064;-59
2023/04/07 08:00:50;;;;;;;5.22;1.58;;;;;;;17.16;52.25;100684.34;5025951;28;20069;-56
2023/04/07 08:03:18;;;;;;;7.65;1.10;;;;;;;17.45;51.79;100685.50;5024011;28;20046;-58
2023/04/07 08:05:47;;;;;;;4.43;0.82;;;;;;;17.73;50.65;100679.66;5023621;28;20054;-57
2023/04/07 08:08:13;;;;;;;4.63;1.20;;;;;;;17.84;49.54;100679.41;5027124;28;20046;-53
2023/04/07 08:10:40;;;;;;;2.08;0.95;;;;;;;17.79;48.68;100683.03;5004335;28;20541;-58
2023/04/07 08:13:06;;;;;;;6.47;0.82;;;;;;;17.67;47.80;100685.03;5011697;28;20081;-55
2023/04/07 08:15:33;;;;;;;7.35;1.25;;;;;;;17.70;47.00;100684.13;5021145;28;20061;-52
2023/04/07 08:18:03;;;;;;;2.65;1.15;;;;;;;17.79;47.69;100685.66;5025096;28;20445;-56
2023/04/07 08:20:30;;;;;;;5.97;1.50;;;;;;;17.93;46.93;100690.59;5021686;28;20049;-56
2023/04/07 08:22:57;;;;;;;3.45;0.80;;;;;;;18.05;46.51;100686.81;5025620;28;20108;-54
2023/04/07 08:25:24;;;;;;;2.95;0.57;;;;;;;18.21;46.81;100688.19;5020755;28;20049;-59
2023/04/07 08:27:51;;;;;;;5.78;1.98;;;;;;;18.37;46.44;100690.44;5013591;28;20469;-60
2023/04/07 08:30:19;;;;;;;4.18;1.17;;;;;;;18.48;45.83;100691.03;5000958;28;20050;-58
2023/04/07 08:32:46;;;;;;;2.88;0.90;;;;;;;18.63;45.90;100696.78;4998436;28;20054;-54
2023/04/07 08:35:13;;;;;;;5.75;1.65;;;;;;;18.93;45.70;100699.50;5021633;28;20093;-56
2023/04/07 08:37:41;;;;;;;4.00;1.35;;;;;;;19.26;45.43;100701.25;5008854;28;20058;-57
2023/04/07 08:40:08;;;;;;;2.53;1.00;;;;;;;19.64;45.25;100703.66;5002956;28;20045;-60
2023/04/07 08:42:40;;;;;;;3.40;0.93;;;;;;;19.77;43.40;100712.03;5002314;28;20046;-59
2023/04/07 08:45:08;;;;;;;2.95;1.23;;;;;;;19.86;43.65;100710.88;5006877;28;20101;-56
2023/04/07 08:47:36;;;;;;;5.22;1.73;;;;;;;19.73;43.04;100713.88;4998796;28;20140;-58
2023/04/07 08:50:09;;;;;;;4.57;1.10;;;;;;;19.77;42.70;100712.03;4976724;28;20120;-55
2023/04/07 08:52:45;;;;;;;4.93;1.30;;;;;;;19.84;43.03;100705.66;5002602;28;20050;-58
2023/04/07 08:55:12;;;;;;;2.35;1.00;;;;;;;20.04;42.54;100709.47;4995039;28;20111;-58
2023/04/07 08:57:40;;;;;;;2.95;1.52;;;;;;;20.33;43.01;100709.44;5020615;28;20468;-56
2023/04/07 09:00:08;;;;;;;5.15;1.55;;;;;;;20.65;42.79;100710.09;4999781;28;20050;-57
2023/04/07 09:02:39;;;;;;;4.38;1.42;;;;;;;20.86;41.78;100707.63;4998893;28;20080;-57
2023/04/07 09:05:07;;;;;;;3.88;1.60;;;;;;;20.79;40.87;100709.63;4996531;28;20161;-59
2023/04/07 09:07:35;;;;;;;2.97;1.75;;;;;;;20.76;41.03;100707.97;5000594;28;20136;-57
2023/04/07 09:10:02;;;;;;;4.38;1.25;;;;;;;20.72;41.03;100703.72;5007983;28;20107;-60
2023/04/07 09:12:30;;;;;;;3.83;1.40;;;;;;;20.80;41.05;100704.31;5014827;28;20109;-57
2023/04/07 09:14:57;;;;;;;6.07;1.83;;;;;;;20.87;41.04;100699.69;5017861;28;20045;-57
2023/04/07 09:17:25;;;;;;;4.75;1.30;;;;;;;21.09;41.22;100703.34;5020241;28;20129;-59
2023/04/07 09:19:55;;;;;;;6.63;1.40;;;;;;;21.28;40.63;100699.13;4996280;28;20575;-58
2023/04/07 09:22:42;;;;;;;;;;;;;;;21.61;41.69;100704.97;5020590;28;20041;-59
2023/04/07 09:25:11;;;;;;;3.45;1.13;;;;;;;21.80;40.43;100705.97;5008677;28;19961;-58
2023/04/07 09:27:38;;;;;;;3.22;0.93;;;;;;;21.96;40.56;100710.66;5005248;28;20132;-59
2023/04/07 09:30:13;;;;;;;3.63;0.73;;;;;;;22.11;39.81;100703.00;5011158;28;20100;-58
2023/04/07 09:32:40;;;;;;;3.97;0.73;;;;;;;22.21;39.08;100709.63;5022985;28;20049;-55
2023/04/07 09:35:07;;;;;;;3.42;0.95;;;;;;;22.30;39.56;100709.28;4996174;28;20117;-60
2023/04/07 09:37:34;;;;;;;1.75;0.82;;;;;;;22.40;39.17;100708.88;5015846;28;20120;-59
2023/04/07 09:40:01;;;;;;;3.53;0.85;;;;;;;22.40;38.09;100704.47;5013460;28;20092;-58
2023/04/07 09:42:31;;;;;;;4.18;1.38;;;;;;;22.47;38.90;100705.06;5019946;28;20498;-59
2023/04/07 09:44:59;;;;;;;3.28;1.00;;;;;;;22.62;38.69;100702.72;5017297;28;20148;-57
2023/04/07 09:47:28;;;;;;;2.45;1.58;;;;;;;22.68;37.46;100702.44;5013722;28;20417;-58
2023/04/07 09:49:55;;;;;;;;;;;;;;;22.76;37.74;100702.97;5001915;28;20755;-56
2023/04/07 09:52:25;;;;;;;2.92;0.50;;;;;;;22.54;37.13;100703.88;5017558;28;20020;-59
2023/04/07 09:54:52;;;;;;;;;;;;;;;22.75;38.95;100703.91;4997026;28;20103;-57
2023/04/07 09:57:20;;;;;;;4.88;0.80;;;;;;;22.73;37.19;100706.59;5021304;28;19963;-56
2023/04/07 09:59:47;;;;;;;1.20;0.50;;;;;;;22.59;36.97;100698.41;5021864;28;20134;-56
2023/04/07 10:02:14;;;;;;;2.15;0.98;;;;;;;22.41;37.15;100700.91;5022408;28;20056;-56
2023/04/07 10:04:41;;;;;;;1.75;0.85;;;;;;;22.32;36.99;100696.84;5021243;28;20050;-57
2023/04/07 10:07:07;;;;;;;1.52;1.05;;;;;;;22.39;37.67;100699.25;5010865;28;20081;-55
2023/04/07 10:09:34;;;;;;;3.67;1.05;;;;;;;22.31;37.84;100695.16;5006701;28;20083;-55
2023/04/07 10:12:01;;;;;;;3.35;0.82;;;;;;;22.21;37.17;100699.94;5029287;28;20130;-54
2023/04/07 10:14:31;;;;;;;2.00;1.02;;;;;;;22.27;37.97;100698.84;5029053;28;20048;-58
2023/04/07 10:17:00;;;;;;;2.35;0.95;;;;;;;22.44;37.34;100692.00;5018088;28;20073;-57
2023/04/07 10:19:31;;;;;;;1.27;0.47;;;;;;;22.63;38.05;100688.59;5003411;28;20132;-56
2023/04/07 10:22:00;;;;;;;1.73;0.57;;;;;;;22.66;36.91;100688.47;5011029;28;20136;-57
2023/04/07 10:27:08;;;;;;;3.75;0.85;;;;;;;22.68;37.36;100690.13;5118441;27;20396;-53
2023/04/07 10:29:39;;;;;;;2.40;1.10;;;;;;;22.51;36.32;100684.66;5080212;28;20143;-58
2023/04/07 10:32:06;;;;;;;2.25;1.00;;;;;;;22.26;36.26;100678.63;5080772;28;20063;-57
2023/04/07 10:37:26;;;;;;;2.47;1.23;;;;;;;21.96;37.32;100686.91;5072897;27;20388;-57
2023/04/07 10:42:56;;;;;;;2.35;2.10;;;;;;;21.39;37.14;100684.69;5093328;27;20397;-56
2023/04/07 10:45:55;;;;;;;2.03;1.23;;;;;;;21.11;38.07;100686.56;5091960;28;20156;-54
2023/04/07 10:48:21;;;;;;;2.42;1.67;;;;;;;20.99;37.36;100687.91;5081380;28;20040;-56
2023/04/07 10:54:19;;;;;;;2.53;0.57;;;;;;;20.90;36.58;100682.94;5063067;28;20383;-57
2023/04/07 10:59:45;;;;;;;2.55;0.73;;;;;;;20.63;37.41;100686.47;5082799;28;20386;-56
2023/04/07 11:04:48;;;;;;;2.25;1.77;;;;;;;20.66;37.47;100685.50;5029986;27;20402;-56
2023/04/07 11:07:18;;;;;;;3.22;2.05;;;;;;;20.62;38.44;100681.25;5023949;28;20041;-57
2023/04/07 11:09:45;;;;;;;2.42;2.25;;;;;;;20.68;37.45;100681.06;5031668;28;20110;-57
2023/04/07 11:12:27;;;;;;;2.40;2.20;;;;;;;20.54;36.55;100682.38;5043316;28;20087;-56
2023/04/07 11:14:55;;;;;;;2.35;2.15;;;;;;;20.47;37.16;100678.25;5041758;28;20668;-57
2023/04/07 11:17:22;;;;;;;3.05;2.17;;;;;;;20.42;37.77;100673.16;5043158;28;20045;-57
2023/04/07 11:19:51;;;;;;;2.58;2.38;;;;;;;20.47;37.68;100685.28;5041986;28;20155;-55
2023/04/07 11:22:18;;;;;;;3.22;2.63;;;;;;;20.48;37.21;100693.13;5043262;28;20049;-55
2023/04/07 11:24:47;;;;;;;;;;;;;;;20.42;36.58;100682.81;5043699;28;20124;-51
2023/04/07 11:27:15;;;;;;;3.47;2.33;;;;;;;20.39;36.21;100688.16;5042784;28;19991;-55
2023/04/07 11:29:42;;;;;;;3.55;2.58;;;;;;;20.29;37.37;100682.34;5037755;28;20128;-57
2023/04/07 11:32:10;;;;;;;8.23;5.10;;;;;;;20.25;37.35;100692.13;5043272;28;20088;-56
2023/04/07 11:34:36;;;;;;;3.50;2.47;;;;;;;20.26;37.59;100678.06;5039798;28;20095;-55
2023/04/07 11:37:25;;;;;;;2.42;1.88;;;;;;;20.14;35.79;100681.09;5042131;28;20081;-57
2023/04/07 11:39:56;;;;;;;2.10;0.80;;;;;;;19.98;36.33;100686.81;5041166;28;20417;-55
2023/04/07 11:42:39;;;;;;;3.17;2.47;;;;;;;19.84;34.98;100686.41;5043478;28;20103;-56
2023/04/07 11:45:18;;;;;;;2.70;2.17;;;;;;;19.80;36.54;100679.53;5042556;28;20115;-54
2023/04/07 11:47:45;;;;;;;2.97;2.30;;;;;;;20.00;36.99;100677.13;5041741;28;20077;-55
2023/04/07 11:50:11;;;;;;;2.33;2.13;;;;;;;20.20;36.46;100682.69;5042421;28;20077;-55
2023/04/07 11:55:21;;;;;;;3.03;0.50;;;;;;;20.33;36.60;100673.44;5086315;27;20886;-51
2023/04/07 11:57:50;;;;;;;2.25;0.93;;;;;;;20.10;36.33;100676.84;5079653;28;20500;-54
2023/04/07 12:00:17;;;;;;;3.03;1.02;;;;;;;19.76;36.48;100684.88;5077403;28;20555;-55
2023/04/07 12:02:44;;;;;;;2.63;0.77;;;;;;;19.46;36.61;100676.16;5099141;28;20044;-52